Time;durP1;ratioP1;P1;durP2;ratioP2;P2;SDS_P1;SDS_P2;PMS_P1;PMS_P2;Temp;Humidity;BMP_temperature;BMP_pressure;BME280_temperature;BME280_humidity;BME280_pressure;Samples;Min_cycle;Max_cycle;Signal;HPM_P1;HPM_P2
2022/06/25 00:00:03;;;;;;;;;;;14.90;99.90;;;;;;5066191;28;20022;-67
2022/06/25 00:02:30;;;;;;;;;;;14.90;99.90;;;;;;5062277;28;19982;-66
2022/06/25 00:07:42;;;;;;;;;;;15.00;99.90;;;;;;5066384;28;20024;-65
2022/06/25 00:10:08;;;;;;;;;;;15.00;99.90;;;;;;5071646;28;20015;-66
2022/06/25 00:12:36;;;;;;;;;;;14.90;99.90;;;;;;5076649;28;19955;-66
2022/06/25 00:15:04;;;;;;;;;;;14.90;99.90;;;;;;5072878;28;19928;-66
2022/06/25 00:17:31;;;;;;;;;;;14.90;99.90;;;;;;5071209;28;20023;-66
2022/06/25 00:19:58;;;;;;;;;;;14.80;99.90;;;;;;5054899;28;19924;-66
2022/06/25 00:22:25;;;;;;;;;;;14.80;99.90;;;;;;5072814;28;19924;-66
2022/06/25 00:24:53;;;;;;;;;;;14.80;99.90;;;;;;5072677;28;20480;-66
2022/06/25 00:27:19;;;;;;;;;;;14.80;99.90;;;;;;5066090;28;19967;-66
2022/06/25 00:29:46;;;;;;;;;;;14.80;99.90;;;;;;5053188;28;19931;-66
2022/06/25 00:32:13;;;;;;;;;;;14.80;99.90;;;;;;5055589;28;19968;-66
2022/06/25 00:34:40;;;;;;;;;;;14.70;99.90;;;;;;5068040;28;20391;-66
2022/06/25 00:37:07;;;;;;;;;;;14.60;99.90;;;;;;5075064;28;19966;-66
2022/06/25 00:39:43;;;;;;;;;;;14.70;99.90;;;;;;5050504;28;19932;-66
2022/06/25 00:42:11;;;;;;;;;;;14.60;99.90;;;;;;5067062;28;19925;-66
2022/06/25 00:44:40;;;;;;;;;;;14.50;99.90;;;;;;5080931;28;20375;-66
2022/06/25 00:47:10;;;;;;;;;;;14.50;99.90;;;;;;5066385;28;19925;-67
2022/06/25 00:49:40;;;;;;;;;;;14.40;99.90;;;;;;5064253;28;19931;-66
2022/06/25 00:52:17;;;;;;;;;;;14.30;99.90;;;;;;5072225;28;19925;-66
2022/06/25 00:55:10;;;;;;;;;;;14.30;99.90;;;;;;5075616;28;19924;-66
2022/06/25 00:57:40;;;;;;;;;;;14.30;99.90;;;;;;5070937;28;19970;-65
2022/06/25 01:00:09;;;;;;;;;;;14.40;99.90;;;;;;5070576;28;20305;-66
2022/06/25 01:02:35;;;;;;;;;;;14.40;99.90;;;;;;5048414;28;20551;-66
2022/06/25 01:05:06;;;;;;;;;;;14.40;99.90;;;;;;5056489;28;19955;-66
2022/06/25 01:07:36;;;;;;;;;;;14.40;99.90;;;;;;5066536;28;20436;-66
2022/06/25 01:10:06;;;;;;;;;;;14.30;99.90;;;;;;5063274;28;19925;-67
2022/06/25 01:12:33;;;;;;;;;;;14.30;99.90;;;;;;5058630;28;19960;-66
2022/06/25 01:15:04;;;;;;;;;;;14.20;99.90;;;;;;5073204;28;19929;-66
2022/06/25 01:17:31;;;;;;;;;;;14.10;99.90;;;;;;5064012;28;20002;-66
2022/06/25 01:19:58;;;;;;;;;;;14.10;99.90;;;;;;5052289;28;20035;-66
2022/06/25 01:22:25;;;;;;;;;;;14.10;99.90;;;;;;5053651;28;20039;-66
2022/06/25 01:24:51;;;;;;;;;;;14.00;99.90;;;;;;5069960;28;19935;-66
2022/06/25 01:27:18;;;;;;;;;;;13.90;99.90;;;;;;5071454;28;19946;-66
2022/06/25 01:29:45;;;;;;;;;;;13.80;99.90;;;;;;5092034;28;19924;-66
2022/06/25 01:32:12;;;;;;;;;;;13.70;99.90;;;;;;5069429;28;19931;-66
2022/06/25 01:34:41;;;;;;;;;;;13.70;99.90;;;;;;5070080;28;19924;-66
2022/06/25 01:37:07;;;;;;;;;;;13.70;99.90;;;;;;5071556;28;19931;-66
2022/06/25 01:39:34;;;;;;;;;;;13.70;99.90;;;;;;5068966;28;20347;-66
2022/06/25 01:42:01;;;;;;;;;;;13.90;99.90;;;;;;5071054;28;19925;-66
2022/06/25 01:44:29;;;;;;;;;;;13.90;99.90;;;;;;5071549;28;19964;-66
2022/06/25 01:46:56;;;;;;;;;;;13.90;99.90;;;;;;5065080;28;19960;-66
2022/06/25 01:49:22;;;;;;;;;;;13.90;99.90;;;;;;5056081;28;19929;-66
2022/06/25 01:51:49;;;;;;;;;;;14.00;99.90;;;;;;5068113;28;19924;-66
2022/06/25 01:54:16;;;;;;;;;;;13.90;99.90;;;;;;5059131;28;20543;-66
2022/06/25 01:56:52;;;;;;;;;;;14.00;99.90;;;;;;5062700;28;19924;-66
2022/06/25 01:59:18;;;;;;;;;;;14.00;99.90;;;;;;5071360;28;19931;-66
2022/06/25 02:01:45;;;;;;;;;;;14.00;99.90;;;;;;5068376;28;19931;-67
2022/06/25 02:04:13;;;;;;;;;;;13.90;99.90;;;;;;5066520;28;19948;-66
2022/06/25 02:06:39;;;;;;;;;;;13.90;99.90;;;;;;5064768;28;20077;-66
2022/06/25 02:09:06;;;;;;;;;;;13.90;99.90;;;;;;5066967;28;19929;-66
2022/06/25 02:11:33;;;;;;;;;;;14.00;99.90;;;;;;5070426;28;20404;-66
2022/06/25 02:14:00;;;;;;;;;;;14.00;99.90;;;;;;5062282;28;19960;-66
2022/06/25 02:16:27;;;;;;;;;;;13.90;99.90;;;;;;5050303;28;20298;-66
2022/06/25 02:18:53;;;;;;;;;;;13.90;99.90;;;;;;5060145;28;19932;-66
2022/06/25 02:21:20;;;;;;;;;;;13.80;99.90;;;;;;5067121;28;19935;-66
2022/06/25 02:23:47;;;;;;;;;;;13.90;99.90;;;;;;5069065;28;19931;-66
2022/06/25 02:26:14;;;;;;;;;;;13.90;99.90;;;;;;5062748;28;20458;-66
2022/06/25 02:28:40;;;;;;;;;;;14.00;99.90;;;;;;5050544;28;19947;-66
2022/06/25 02:31:07;;;;;;;;;;;14.00;99.90;;;;;;5065128;28;19924;-66
2022/06/25 02:33:34;;;;;;;;;;;14.10;99.90;;;;;;5067187;28;20031;-66
2022/06/25 02:36:00;;;;;;;;;;;14.10;99.90;;;;;;5051933;28;19967;-66
2022/06/25 02:38:30;;;;;;;;;;;14.10;99.90;;;;;;4861751;28;29065;-66
2022/06/25 02:41:00;;;;;;;;;;;14.10;99.90;;;;;;4826969;28;34096;-66
2022/06/25 02:43:27;;;;;;;;;;;14.00;99.90;;;;;;4985422;28;25094;-67
2022/06/25 02:45:53;;;;;;;;;;;14.00;99.90;;;;;;5058471;28;19947;-66
2022/06/25 02:48:20;;;;;;;;;;;13.90;99.90;;;;;;5054975;28;19932;-67
2022/06/25 02:50:47;;;;;;;;;;;13.90;99.90;;;;;;5074338;28;19924;-66
2022/06/25 02:53:14;;;;;;;;;;;13.90;99.90;;;;;;5072158;28;19928;-66
2022/06/25 03:01:14;;;;;;;;;;;13.80;99.90;;;;;;5060531;28;19925;-67
2022/06/25 03:03:40;;;;;;;;;;;13.70;99.90;;;;;;5055018;28;21578;-67
2022/06/25 03:06:07;;;;;;;;;;;13.70;99.90;;;;;;5042007;28;25143;-67
2022/06/25 03:08:33;;;;;;;;;;;13.60;99.90;;;;;;5057791;28;20107;-67
2022/06/25 03:11:00;;;;;;;;;;;13.60;99.90;;;;;;5072486;28;19934;-67
2022/06/25 03:13:29;;;;;;;;;;;13.50;99.90;;;;;;5073264;28;20291;-67
2022/06/25 03:15:55;;;;;;;;;;;13.50;99.90;;;;;;5067726;28;19929;-67
2022/06/25 03:18:22;;;;;;;;;;;13.40;99.90;;;;;;5057156;28;19937;-67
2022/06/25 03:20:50;;;;;;;;;;;13.30;99.90;;;;;;5060828;28;19924;-67
2022/06/25 03:23:17;;;;;;;;;;;13.30;99.90;;;;;;5073976;28;19936;-66
2022/06/25 03:25:43;;;;;;;;;;;13.40;99.90;;;;;;5071702;28;20015;-67
2022/06/25 03:28:10;;;;;;;;;;;13.40;99.90;;;;;;5070235;28;19971;-67
2022/06/25 03:30:37;;;;;;;;;;;13.50;99.90;;;;;;5084058;28;19924;-67
2022/06/25 03:33:04;;;;;;;;;;;13.60;99.90;;;;;;5064361;28;19924;-67
2022/06/25 03:35:31;;;;;;;;;;;13.60;99.90;;;;;;5071767;28;19931;-66
2022/06/25 03:38:03;;;;;;;;;;;13.60;99.90;;;;;;5069277;28;20500;-67
2022/06/25 03:40:30;;;;;;;;;;;13.60;99.90;;;;;;5071946;28;20022;-67
2022/06/25 03:43:00;;;;;;;;;;;13.60;99.90;;;;;;5064942;28;19926;-67
2022/06/25 03:45:26;;;;;;;;;;;13.60;99.90;;;;;;5058496;28;19928;-67
2022/06/25 03:47:53;;;;;;;;;;;13.60;99.90;;;;;;5054708;28;20378;-67
2022/06/25 03:50:20;;;;;;;;;;;13.60;99.90;;;;;;5064248;28;19928;-67
2022/06/25 03:52:47;;;;;;;;;;;13.70;99.90;;;;;;5073083;28;19977;-67
2022/06/25 03:55:14;;;;;;;;;;;13.70;99.90;;;;;;5070521;28;19924;-67
2022/06/25 03:57:41;;;;;;;;;;;13.80;99.90;;;;;;5053143;28;20516;-67
2022/06/25 04:00:09;;;;;;;;;;;13.80;99.90;;;;;;5066917;28;19931;-67
2022/06/25 04:02:36;;;;;;;;;;;13.80;99.90;;;;;;5061040;28;19931;-67
2022/06/25 04:05:03;;;;;;;;;;;13.90;99.90;;;;;;5071008;28;20004;-67
2022/06/25 04:07:29;;;;;;;;;;;13.90;99.90;;;;;;5073499;28;19978;-67
2022/06/25 04:09:57;;;;;;;;;;;14.00;99.90;;;;;;5064611;28;19924;-67
2022/06/25 04:12:23;;;;;;;;;;;14.10;99.90;;;;;;5055262;28;19936;-67
2022/06/25 04:14:50;;;;;;;;;;;14.20;99.90;;;;;;5059321;28;19928;-66
2022/06/25 04:17:17;;;;;;;;;;;14.30;99.90;;;;;;5070046;28;19928;-67
2022/06/25 04:19:43;;;;;;;;;;;14.40;99.90;;;;;;5055391;28;19931;-67
2022/06/25 04:22:13;;;;;;;;;;;14.50;99.90;;;;;;5071189;28;19938;-67
2022/06/25 04:24:40;;;;;;;;;;;14.60;99.90;;;;;;5069847;28;20020;-67
2022/06/25 04:27:07;;;;;;;;;;;14.70;99.90;;;;;;5065304;28;19928;-66
2022/06/25 04:29:34;;;;;;;;;;;14.70;99.90;;;;;;5068378;28;19924;-67
2022/06/25 04:32:00;;;;;;;;;;;14.70;99.90;;;;;;5055186;28;19994;-67
2022/06/25 04:34:27;;;;;;;;;;;14.70;99.90;;;;;;5065345;28;20371;-68
2022/06/25 04:36:53;;;;;;;;;;;14.70;99.90;;;;;;5072524;28;19924;-66
2022/06/25 04:39:20;;;;;;;;;;;14.80;99.90;;;;;;5092457;28;19928;-67
2022/06/25 04:41:48;;;;;;;;;;;14.80;99.90;;;;;;5070965;28;19931;-66
2022/06/25 04:44:16;;;;;;;;;;;15.20;99.90;;;;;;5060624;28;19956;-67
2022/06/25 04:46:43;;;;;;;;;;;16.10;99.90;;;;;;5060086;28;19950;-67
2022/06/25 04:49:10;;;;;;;;;;;16.80;99.90;;;;;;5075391;28;19947;-67
2022/06/25 04:51:37;;;;;;;;;;;17.30;99.90;;;;;;5086201;28;19933;-67
2022/06/25 04:54:03;;;;;;;;;;;17.70;99.90;;;;;;5063411;28;19928;-67
2022/06/25 04:56:30;;;;;;;;;;;17.80;99.90;;;;;;5071765;28;20410;-67
2022/06/25 04:58:57;;;;;;;;;;;18.00;99.90;;;;;;5069313;28;19974;-66
2022/06/25 05:01:24;;;;;;;;;;;18.30;99.90;;;;;;5076718;28;20003;-66
2022/06/25 05:03:50;;;;;;;;;;;18.80;99.90;;;;;;5071511;28;19928;-66
2022/06/25 05:06:18;;;;;;;;;;;19.40;99.90;;;;;;5071787;28;19924;-66
2022/06/25 05:08:45;;;;;;;;;;;19.80;99.90;;;;;;4896811;28;49169;-67
2022/06/25 05:11:12;;;;;;;;;;;20.30;99.90;;;;;;4867710;28;44130;-67
2022/06/25 05:13:38;;;;;;;;;;;20.60;99.90;;;;;;4865735;28;50110;-67
2022/06/25 05:16:05;;;;;;;;;;;20.90;99.90;;;;;;4878184;28;42078;-67
2022/06/25 05:18:33;;;;;;;;;;;21.00;99.90;;;;;;4861864;28;80142;-68
2022/06/25 05:21:00;;;;;;;;;;;21.60;99.90;;;;;;4870598;28;44079;-67
2022/06/25 05:23:26;;;;;;;;;;;21.70;99.90;;;;;;4875877;28;69127;-68
2022/06/25 05:25:53;;;;;;;;;;;22.10;99.90;;;;;;4876054;28;86180;-68
2022/06/25 05:28:20;;;;;;;;;;;22.20;99.90;;;;;;4887155;28;27105;-68
2022/06/25 05:30:47;;;;;;;;;;;22.40;99.90;;;;;;4908652;28;48175;-69
2022/06/25 05:33:14;;;;;;;;;;;22.30;99.90;;;;;;4874925;28;31083;-68
2022/06/25 05:35:41;;;;;;;;;;;22.30;99.90;;;;;;4881546;28;46117;-68
2022/06/25 05:38:07;;;;;;;;;;;22.60;99.90;;;;;;4892865;28;36212;-68
2022/06/25 05:40:34;;;;;;;;;;;23.10;99.90;;;;;;4882886;28;33157;-67
2022/06/25 05:43:01;;;;;;;;;;;23.70;99.90;;;;;;4881494;28;31084;-68
2022/06/25 05:45:29;;;;;;;;;;;23.80;99.90;;;;;;4901026;28;25062;-68
2022/06/25 05:47:56;;;;;;;;;;;23.50;99.90;;;;;;4881956;28;37132;-67
2022/06/25 05:50:22;;;;;;;;;;;22.90;99.90;;;;;;4888531;28;33099;-68
2022/06/25 05:52:49;;;;;;;;;;;22.90;99.90;;;;;;4906214;28;26155;-67
2022/06/25 05:55:16;;;;;;;;;;;23.40;99.90;;;;;;4994270;28;25093;-68
2022/06/25 05:57:43;;;;;;;;;;;24.10;99.90;;;;;;4959473;28;26298;-65
2022/06/25 06:00:10;;;;;;;;;;;25.00;99.90;;;;;;4915460;28;25116;-66
2022/06/25 06:02:36;;;;;;;;;;;24.70;99.90;;;;;;4904433;28;30162;-66
2022/06/25 06:05:03;;;;;;;;;;;24.90;99.90;;;;;;4899496;28;26264;-66
2022/06/25 06:07:30;;;;;;;;;;;25.20;99.90;;;;;;4904501;28;27101;-67
2022/06/25 06:09:58;;;;;;;;;;;25.60;99.90;;;;;;4909739;28;32190;-66
2022/06/25 06:12:26;;;;;;;;;;;26.30;99.90;;;;;;4913641;28;29318;-67
2022/06/25 06:14:53;;;;;;;;;;;26.80;99.90;;;;;;4899531;28;30185;-67
2022/06/25 06:17:21;;;;;;;;;;;26.10;99.90;;;;;;4897150;28;34115;-66
2022/06/25 06:19:49;;;;;;;;;;;24.70;99.90;;;;;;4926145;28;27105;-66
2022/06/25 06:22:16;;;;;;;;;;;24.40;99.90;;;;;;4908046;28;32949;-66
2022/06/25 06:24:44;;;;;;;;;;;24.70;99.90;;;;;;4987154;28;25120;-66
2022/06/25 06:27:11;;;;;;;;;;;25.80;99.90;;;;;;5017617;28;27120;-67
2022/06/25 06:29:37;;;;;;;;;;;26.60;99.90;;;;;;4915301;28;25077;-70
2022/06/25 06:32:04;;;;;;;;;;;25.90;99.90;;;;;;4920648;28;26140;-66
2022/06/25 06:34:31;;;;;;;;;;;25.10;99.90;;;;;;4935540;28;25209;-66
2022/06/25 06:36:58;;;;;;;;;;;24.30;99.90;;;;;;5044037;28;30084;-66
2022/06/25 06:39:24;;;;;;;;;;;23.80;99.90;;;;;;4924943;28;25107;-66
2022/06/25 06:41:51;;;;;;;;;;;23.20;99.90;;;;;;4935589;28;34109;-67
2022/06/25 06:44:18;;;;;;;;;;;22.80;99.90;;;;;;4889632;28;32086;-66
2022/06/25 06:46:48;;;;;;;;;;;22.60;99.90;;;;;;4899450;28;27159;-66
2022/06/25 06:49:17;;;;;;;;;;;22.60;99.90;;;;;;4887528;28;27176;-67
2022/06/25 06:51:43;;;;;;;;;;;23.60;99.90;;;;;;4921064;28;28207;-66
2022/06/25 06:54:11;;;;;;;;;;;23.50;99.90;;;;;;4937416;28;27191;-67
2022/06/25 06:56:37;;;;;;;;;;;23.30;99.90;;;;;;5074837;28;19960;-66
2022/06/25 06:59:04;;;;;;;;;;;22.90;99.90;;;;;;5075096;28;20015;-66
2022/06/25 07:01:31;;;;;;;;;;;22.40;99.90;;;;;;5074026;28;19934;-66
2022/06/25 07:03:57;;;;;;;;;;;22.20;99.90;;;;;;5063732;28;19932;-66
2022/06/25 07:06:24;;;;;;;;;;;22.10;99.90;;;;;;5072602;28;19931;-66
2022/06/25 07:08:51;;;;;;;;;;;22.20;99.90;;;;;;4978936;28;30108;-67
2022/06/25 07:11:29;;;;;;;;;;;22.30;99.90;;;;;;4904909;28;26103;-67
2022/06/25 07:14:00;;;;;;;;;;;22.30;99.90;;;;;;4895225;28;28305;-68
2022/06/25 07:16:27;;;;;;;;;;;22.40;99.90;;;;;;4897928;28;34110;-68
2022/06/25 07:18:55;;;;;;;;;;;22.50;99.90;;;;;;4891567;28;26074;-68
2022/06/25 07:21:22;;;;;;;;;;;22.40;99.90;;;;;;4897310;28;31111;-68
2022/06/25 07:23:49;;;;;;;;;;;22.50;99.90;;;;;;4896652;28;41093;-68
2022/06/25 07:26:15;;;;;;;;;;;22.80;99.90;;;;;;4901942;28;30079;-68
2022/06/25 07:28:45;;;;;;;;;;;23.20;99.90;;;;;;4901064;28;38197;-68
2022/06/25 07:31:14;;;;;;;;;;;23.50;99.90;;;;;;4884486;28;27099;-68
2022/06/25 07:33:41;;;;;;;;;;;23.40;99.90;;;;;;4897350;28;38079;-67
2022/06/25 07:36:08;;;;;;;;;;;23.40;99.90;;;;;;4890518;28;27075;-68
2022/06/25 07:38:34;;;;;;;;;;;23.00;99.90;;;;;;4888208;28;28264;-68
2022/06/25 07:41:01;;;;;;;;;;;22.80;99.90;;;;;;4887160;28;26116;-68
2022/06/25 07:43:28;;;;;;;;;;;22.70;99.90;;;;;;4890079;28;33120;-68
2022/06/25 07:45:58;;;;;;;;;;;22.30;99.90;;;;;;4898926;28;28114;-68
2022/06/25 07:48:25;;;;;;;;;;;22.00;99.90;;;;;;4894282;28;31455;-68
2022/06/25 07:53:40;;;;;;;;;;;21.90;99.90;;;;;;4882938;28;31158;-68
2022/06/25 07:56:07;;;;;;;;;;;21.90;99.90;;;;;;4893216;28;28105;-67
2022/06/25 07:58:34;;;;;;;;;;;22.30;99.90;;;;;;4897058;28;25079;-68
2022/06/25 08:01:01;;;;;;;;;;;22.40;99.90;;;;;;4929667;28;33159;-67
2022/06/25 08:03:30;;;;;;;;;;;23.20;99.90;;;;;;4914073;28;26165;-67
2022/06/25 08:05:57;;;;;;;;;;;24.70;99.90;;;;;;4908572;28;30158;-67
2022/06/25 08:08:24;;;;;;;;;;;26.10;99.90;;;;;;4911942;28;33124;-67
2022/06/25 08:10:51;;;;;;;;;;;26.70;99.90;;;;;;4913130;28;30130;-67
2022/06/25 08:13:20;;;;;;;;;;;27.50;99.90;;;;;;4934719;28;33238;-67
2022/06/25 08:15:47;;;;;;;;;;;27.30;99.90;;;;;;4928259;28;30207;-67
2022/06/25 08:18:14;;;;;;;;;;;26.50;99.90;;;;;;4904610;28;32089;-67
2022/06/25 08:20:41;;;;;;;;;;;25.60;99.90;;;;;;4935822;28;35302;-68
2022/06/25 08:23:07;;;;;;;;;;;25.20;99.90;;;;;;5046436;28;25108;-67
2022/06/25 08:25:34;;;;;;;;;;;25.80;99.90;;;;;;4978520;28;29116;-67
2022/06/25 08:28:05;;;;;;;;;;;26.70;99.90;;;;;;4985569;28;25122;-67
2022/06/25 08:30:32;;;;;;;;;;;27.80;99.90;;;;;;4935959;28;25093;-67
2022/06/25 08:32:59;;;;;;;;;;;28.50;99.90;;;;;;4963606;28;37138;-67
2022/06/25 08:35:26;;;;;;;;;;;29.40;99.90;;;;;;4950646;28;25087;-67
2022/06/25 08:37:56;;;;;;;;;;;29.60;99.90;;;;;;4949555;28;28098;-67
2022/06/25 08:40:23;;;;;;;;;;;29.90;99.90;;;;;;4950719;28;25257;-67
2022/06/25 08:42:50;;;;;;;;;;;30.10;99.90;;;;;;4947014;28;25079;-67
2022/06/25 08:45:17;;;;;;;;;;;30.30;99.90;;;;;;4949492;28;33139;-67
2022/06/25 08:47:45;;;;;;;;;;;30.30;99.90;;;;;;4952353;28;28119;-67
2022/06/25 08:50:14;;;;;;;;;;;30.90;99.90;;;;;;4921636;28;27185;-67
2022/06/25 08:52:48;;;;;;;;;;;30.90;99.90;;;;;;4939008;28;25089;-67
2022/06/25 08:55:33;;;;;;;;;;;30.90;99.90;;;;;;4940112;28;25144;-67
2022/06/25 08:58:01;;;;;;;;;;;29.70;99.90;;;;;;5030716;28;25069;-67
2022/06/25 09:00:28;;;;;;;;;;;28.80;99.90;;;;;;5001478;28;25107;-66
2022/06/25 09:02:55;;;;;;;;;;;28.70;99.90;;;;;;5053468;28;19932;-67
2022/06/25 09:05:26;;;;;;;;;;;29.30;99.90;;;;;;4947194;28;26050;-67
2022/06/25 09:07:53;;;;;;;;;;;29.70;99.90;;;;;;4941619;28;26090;-67
2022/06/25 09:10:21;;;;;;;;;;;29.90;99.90;;;;;;4933295;28;28133;-67
2022/06/25 09:12:54;;;;;;;;;;;30.20;99.90;;;;;;4952117;28;28103;-68
2022/06/25 09:15:25;;;;;;;;;;;30.30;99.90;;;;;;4948055;28;32136;-67
2022/06/25 09:17:52;;;;;;;;;;;29.30;99.90;;;;;;4954904;28;31201;-67
2022/06/25 09:20:26;;;;;;;;;;;28.80;99.90;;;;;;4947110;28;26084;-67
2022/06/25 09:23:04;;;;;;;;;;;28.20;99.90;;;;;;4963458;28;32107;-67
2022/06/25 09:25:31;;;;;;;;;;;28.40;99.90;;;;;;4956064;28;27177;-67
2022/06/25 09:27:58;;;;;;;;;;;28.80;99.90;;;;;;4946699;28;36114;-67
2022/06/25 09:30:29;;;;;;;;;;;29.60;99.90;;;;;;4951820;28;34204;-67
2022/06/25 09:32:56;;;;;;;;;;;29.70;99.90;;;;;;4946844;28;26119;-66
2022/06/25 09:35:29;;;;;;;;;;;29.80;99.90;;;;;;4957818;28;27079;-66
2022/06/25 09:38:02;;;;;;;;;;;29.70;99.90;;;;;;4939516;28;26132;-66
2022/06/25 09:40:31;;;;;;;;;;;30.30;99.90;;;;;;4967440;28;30217;-67
2022/06/25 09:42:58;;;;;;;;;;;31.00;99.90;;;;;;4947098;28;33231;-67
2022/06/25 09:45:25;;;;;;;;;;;31.00;99.90;;;;;;4938531;28;25073;-67
2022/06/25 09:47:54;;;;;;;;;;;31.00;99.90;;;;;;4948619;28;25087;-67
2022/06/25 09:50:22;;;;;;;;;;;31.80;99.90;;;;;;4950478;28;27070;-67
2022/06/25 09:52:50;;;;;;;;;;;32.00;99.90;;;;;;4959524;28;26096;-67
2022/06/25 09:55:18;;;;;;;;;;;32.30;99.90;;;;;;4958737;28;33192;-66
2022/06/25 09:57:45;;;;;;;;;;;32.10;99.90;;;;;;4969140;28;28190;-67
2022/06/25 10:00:14;;;;;;;;;;;31.60;99.90;;;;;;4960059;28;30090;-66
2022/06/25 10:02:42;;;;;;;;;;;30.70;99.90;;;;;;4955044;28;28211;-68
2022/06/25 10:05:09;;;;;;;;;;;30.80;99.90;;;;;;4948430;28;33071;-67
2022/06/25 10:08:00;;;;;;;;;;;31.20;99.90;;;;;;4944297;28;34097;-67
2022/06/25 10:10:26;;;;;;;;;;;30.90;99.90;;;;;;4952478;28;25113;-66
2022/06/25 10:12:54;;;;;;;;;;;29.90;99.90;;;;;;4939078;28;25117;-67
2022/06/25 10:15:21;;;;;;;;;;;30.20;99.90;;;;;;4936135;28;28220;-67
2022/06/25 10:17:48;;;;;;;;;;;30.50;99.90;;;;;;4930174;28;29107;-65
2022/06/25 10:20:16;;;;;;;;;;;30.00;99.90;;;;;;4918650;28;27116;-66
2022/06/25 10:22:46;;;;;;;;;;;29.70;99.90;;;;;;4937153;28;27120;-66
2022/06/25 10:25:22;;;;;;;;;;;29.90;99.90;;;;;;4928468;28;27006;-67
2022/06/25 10:27:50;;;;;;;;;;;30.40;99.90;;;;;;4939640;28;29104;-67
2022/06/25 10:30:36;;;;;;;;;;;30.40;99.90;;;;;;4907921;28;29214;-67
2022/06/25 10:33:03;;;;;;;;;;;30.40;99.90;;;;;;4932525;28;29070;-67
2022/06/25 10:35:39;;;;;;;;;;;30.80;99.90;;;;;;4937010;28;27115;-66
2022/06/25 10:38:05;;;;;;;;;;;30.50;99.90;;;;;;4976872;28;25155;-66
2022/06/25 10:40:51;;;;;;;;;;;30.20;99.90;;;;;;5034353;28;25146;-67
2022/06/25 10:43:39;;;;;;;;;;;30.80;99.90;;;;;;4977484;28;30249;-67
2022/06/25 10:46:24;;;;;;;;;;;31.50;99.90;;;;;;4952995;28;28095;-68
2022/06/25 10:48:57;;;;;;;;;;;32.10;99.90;;;;;;4936900;28;28291;-67
2022/06/25 10:51:29;;;;;;;;;;;32.20;99.90;;;;;;4925260;28;33058;-67
2022/06/25 10:53:56;;;;;;;;;;;32.10;99.90;;;;;;4928751;28;31087;-67
2022/06/25 10:56:23;;;;;;;;;;;31.80;99.90;;;;;;4925071;28;29100;-67
2022/06/25 10:58:50;;;;;;;;;;;32.30;99.90;;;;;;4941986;28;25099;-65
2022/06/25 11:01:21;;;;;;;;;;;31.00;99.90;;;;;;4929539;28;31157;-66
2022/06/25 11:03:53;;;;;;;;;;;30.70;99.90;;;;;;4927442;28;29087;-67
2022/06/25 11:06:29;;;;;;;;;;;31.00;99.90;;;;;;4937512;28;27121;-67
2022/06/25 11:09:06;;;;;;;;;;;30.60;99.90;;;;;;4946161;28;28080;-67
2022/06/25 11:11:33;;;;;;;;;;;30.40;99.90;;;;;;4947048;28;29104;-67
2022/06/25 11:14:02;;;;;;;;;;;30.30;99.90;;;;;;4936648;28;32210;-66
2022/06/25 11:16:28;;;;;;;;;;;29.50;99.90;;;;;;4931930;28;28186;-66
2022/06/25 11:18:56;;;;;;;;;;;28.40;99.90;;;;;;4925649;28;30065;-68
2022/06/25 11:21:24;;;;;;;;;;;28.90;99.90;;;;;;4922218;28;38089;-68
2022/06/25 11:23:52;;;;;;;;;;;29.50;99.90;;;;;;4935904;28;26159;-67
2022/06/25 11:29:04;;;;;;;;;;;28.50;99.90;;;;;;4926272;28;35167;-66
2022/06/25 11:31:33;;;;;;;;;;;28.00;99.90;;;;;;4919629;28;27149;-69
2022/06/25 11:34:01;;;;;;;;;;;27.80;99.90;;;;;;4914395;28;32201;-64
2022/06/25 11:36:28;;;;;;;;;;;28.20;99.90;;;;;;4919932;28;29152;-64
2022/06/25 11:38:55;;;;;;;;;;;29.20;99.90;;;;;;4919771;28;33098;-64
2022/06/25 11:41:22;;;;;;;;;;;29.80;99.90;;;;;;4928398;28;25162;-64
2022/06/25 11:43:49;;;;;;;;;;;29.90;99.90;;;;;;4940816;28;28103;-63
2022/06/25 11:46:18;;;;;;;;;;;30.10;99.90;;;;;;4932173;28;27097;-64
2022/06/25 11:48:49;;;;;;;;;;;30.10;99.90;;;;;;4932423;28;37188;-64
2022/06/25 11:51:24;;;;;;;;;;;29.70;99.90;;;;;;4945722;28;30121;-63
2022/06/25 11:53:51;;;;;;;;;;;29.50;99.90;;;;;;4996412;28;25174;-65
2022/06/25 11:56:17;;;;;;;;;;;29.60;99.90;;;;;;5046730;28;25071;-62
2022/06/25 11:58:45;;;;;;;;;;;30.20;99.90;;;;;;4939886;28;33061;-62
2022/06/25 12:01:12;;;;;;;;;;;30.50;99.90;;;;;;4928563;28;36054;-64
2022/06/25 12:03:39;;;;;;;;;;;30.90;99.90;;;;;;4937878;28;29077;-64
2022/06/25 12:06:06;;;;;;;;;;;30.60;99.90;;;;;;4933644;28;30144;-63
2022/06/25 12:08:33;;;;;;;;;;;30.60;99.90;;;;;;4924745;28;28159;-63
2022/06/25 12:11:01;;;;;;;;;;;30.70;99.90;;;;;;4922857;28;32057;-62
2022/06/25 12:13:29;;;;;;;;;;;29.90;99.90;;;;;;4929160;28;31079;-64
2022/06/25 12:15:57;;;;;;;;;;;28.90;99.90;;;;;;4924476;28;29090;-63
2022/06/25 12:18:34;;;;;;;;;;;28.30;99.90;;;;;;4923765;28;36159;-64
2022/06/25 12:21:05;;;;;;;;;;;28.50;99.90;;;;;;4919518;28;42133;-63
2022/06/25 12:23:52;;;;;;;;;;;28.80;99.90;;;;;;4926361;28;33201;-62
2022/06/25 12:26:27;;;;;;;;;;;29.20;99.90;;;;;;4924313;28;26065;-64
2022/06/25 12:29:11;;;;;;;;;;;29.80;99.90;;;;;;4930035;28;34149;-64
2022/06/25 12:31:38;;;;;;;;;;;30.30;99.90;;;;;;4922762;28;49130;-63
2022/06/25 12:34:06;;;;;;;;;;;30.20;99.90;;;;;;4929933;28;34158;-62
2022/06/25 12:36:37;;;;;;;;;;;29.70;99.90;;;;;;4924893;28;42169;-63
2022/06/25 12:39:22;;;;;;;;;;;29.20;99.90;;;;;;4927463;28;39067;-62
2022/06/25 12:41:49;;;;;;;;;;;29.10;99.90;;;;;;4928357;28;29543;-63
2022/06/25 12:44:17;;;;;;;;;;;28.80;99.90;;;;;;4923429;28;26074;-64
2022/06/25 12:46:57;;;;;;;;;;;28.70;99.90;;;;;;4937592;28;47190;-63
2022/06/25 12:49:24;;;;;;;;;;;28.50;99.90;;;;;;4936044;28;40129;-64
2022/06/25 12:51:50;;;;;;;;;;;28.00;99.90;;;;;;4931644;28;34135;-64
2022/06/25 12:54:17;;;;;;;;;;;27.50;99.90;;;;;;4931804;28;33151;-63
2022/06/25 12:56:50;;;;;;;;;;;27.50;99.90;;;;;;4924754;28;29204;-63
2022/06/25 12:59:17;;;;;;;;;;;27.40;99.90;;;;;;4908813;28;42112;-64
2022/06/25 13:01:44;;;;;;;;;;;27.50;99.90;;;;;;4924277;28;32085;-63
2022/06/25 13:04:11;;;;;;;;;;;28.00;99.90;;;;;;4915398;28;30137;-63
2022/06/25 13:06:38;;;;;;;;;;;28.60;99.90;;;;;;4927683;28;33082;-63
2022/06/25 13:09:05;;;;;;;;;;;29.10;99.90;;;;;;4930401;28;32077;-63
2022/06/25 13:11:32;;;;;;;;;;;29.00;99.90;;;;;;4931293;28;35171;-63
2022/06/25 13:13:59;;;;;;;;;;;29.00;99.90;;;;;;4935928;28;27138;-63
2022/06/25 13:16:25;;;;;;;;;;;29.30;99.90;;;;;;4927647;28;41065;-64
2022/06/25 13:18:52;;;;;;;;;;;29.50;99.90;;;;;;4910429;28;40102;-63
2022/06/25 13:21:21;;;;;;;;;;;29.60;99.90;;;;;;4915205;28;64084;-63
2022/06/25 13:23:48;;;;;;;;;;;29.60;99.90;;;;;;4938915;28;31079;-63
2022/06/25 13:26:15;;;;;;;;;;;29.60;99.90;;;;;;4926247;28;36121;-63
2022/06/25 13:28:42;;;;;;;;;;;30.00;99.90;;;;;;4923160;28;28075;-63
2022/06/25 13:31:09;;;;;;;;;;;30.10;99.90;;;;;;4921339;28;44105;-63
2022/06/25 13:33:35;;;;;;;;;;;30.10;99.90;;;;;;4931321;28;29079;-63
2022/06/25 13:36:02;;;;;;;;;;;29.50;99.90;;;;;;4921049;28;46158;-63
2022/06/25 13:38:29;;;;;;;;;;;29.20;99.90;;;;;;4925207;28;47146;-63
2022/06/25 13:40:56;;;;;;;;;;;29.50;99.90;;;;;;4929272;28;35101;-63
2022/06/25 13:43:25;;;;;;;;;;;29.90;99.90;;;;;;4923300;28;32107;-63
2022/06/25 13:45:52;;;;;;;;;;;30.20;99.90;;;;;;4913929;28;42159;-63
2022/06/25 13:48:19;;;;;;;;;;;30.60;99.80;;;;;;4924731;28;31081;-63
2022/06/25 13:50:46;;;;;;;;;;;30.80;98.50;;;;;;4925184;28;45152;-63
2022/06/25 13:53:17;;;;;;;;;;;30.50;98.30;;;;;;4928070;28;44058;-62
2022/06/25 13:55:44;;;;;;;;;;;30.50;98.70;;;;;;4919497;28;39171;-63
2022/06/25 13:58:10;;;;;;;;;;;30.70;99.20;;;;;;4918655;28;34138;-62
2022/06/25 14:00:37;;;;;;;;;;;30.90;98.30;;;;;;4915879;28;36107;-64
2022/06/25 14:03:04;;;;;;;;;;;31.50;99.10;;;;;;4928019;28;31039;-63
2022/06/25 14:05:30;;;;;;;;;;;32.20;98.90;;;;;;4930543;28;33136;-63
2022/06/25 14:07:57;;;;;;;;;;;33.00;97.70;;;;;;4913419;28;32063;-63
2022/06/25 14:10:24;;;;;;;;;;;33.90;97.10;;;;;;4931301;28;31173;-63
2022/06/25 14:12:50;;;;;;;;;;;33.50;96.60;;;;;;4942863;28;27650;-62
2022/06/25 14:15:17;;;;;;;;;;;31.80;97.80;;;;;;4922515;28;38758;-63
2022/06/25 14:17:44;;;;;;;;;;;30.30;98.70;;;;;;4928991;28;36170;-63
2022/06/25 14:20:10;;;;;;;;;;;29.60;99.90;;;;;;4921418;28;50134;-63
2022/06/25 14:22:37;;;;;;;;;;;30.20;98.90;;;;;;4917949;28;50104;-63
2022/06/25 14:25:26;;;;;;;;;;;31.30;98.40;;;;;;4911754;28;37072;-63
2022/06/25 14:27:55;;;;;;;;;;;32.50;98.10;;;;;;4934452;28;67060;-63
2022/06/25 14:30:22;;;;;;;;;;;32.90;96.60;;;;;;4917631;28;44065;-62
2022/06/25 14:32:48;;;;;;;;;;;32.80;96.70;;;;;;4927615;28;41107;-63
2022/06/25 14:35:15;;;;;;;;;;;32.80;96.20;;;;;;4936673;28;29068;-64